createdAt,value
2018-01-16T00:02:09.748Z,2.07
2018-01-16T00:04:38.092Z,2.20
2018-01-16T00:07:06.417Z,1.87
2018-01-16T00:09:34.736Z,1.57
2018-01-16T00:12:03.071Z,1.90
2018-01-16T00:14:31.448Z,2.30
2018-01-16T00:16:59.777Z,2.50
2018-01-16T00:19:28.119Z,1.60
2018-01-16T00:21:56.425Z,1.50
2018-01-16T00:24:24.755Z,1.70
2018-01-16T00:26:53.076Z,2.30
2018-01-16T00:29:22.375Z,1.53
2018-01-16T00:31:50.678Z,1.37
2018-01-16T00:34:19.022Z,1.50
2018-01-16T00:36:47.416Z,1.80
2018-01-16T00:39:15.763Z,1.47
2018-01-16T00:41:44.131Z,1.90
2018-01-16T00:44:12.755Z,1.73
2018-01-16T00:46:41.118Z,2.63
2018-01-16T00:49:09.474Z,2.20
2018-01-16T00:51:37.812Z,2.10
2018-01-16T00:54:06.122Z,2.10
2018-01-16T00:56:34.465Z,2.27
2018-01-16T00:59:02.817Z,2.53
2018-01-16T01:01:31.152Z,1.67
2018-01-16T01:03:59.464Z,2.27
2018-01-16T01:06:27.791Z,2.13
2018-01-16T01:08:56.105Z,2.80
2018-01-16T01:11:24.407Z,2.37
2018-01-16T01:13:52.743Z,2.03
2018-01-16T01:16:21.068Z,2.10
2018-01-16T01:18:49.380Z,2.00
2018-01-16T01:21:17.685Z,2.70
2018-01-16T01:23:46.037Z,1.80
2018-01-16T01:26:14.366Z,1.90
2018-01-16T01:28:42.710Z,2.03
2018-01-16T01:31:11.048Z,1.50
2018-01-16T01:33:39.393Z,2.43
2018-01-16T01:36:07.683Z,2.00
2018-01-16T01:38:36.003Z,1.90
2018-01-16T01:41:04.297Z,2.47
2018-01-16T01:43:32.620Z,2.20
2018-01-16T01:46:00.928Z,1.50
2018-01-16T01:48:29.247Z,1.77
2018-01-16T01:50:57.593Z,1.80
2018-01-16T01:53:25.886Z,1.37
2018-01-16T01:55:54.199Z,1.70
2018-01-16T01:58:22.515Z,1.77
2018-01-16T02:00:50.839Z,2.33
2018-01-16T02:03:19.170Z,1.90
2018-01-16T02:05:47.599Z,2.70
2018-01-16T02:08:16.033Z,1.67
2018-01-16T02:10:44.380Z,2.07
2018-01-16T02:13:12.828Z,1.80
2018-01-16T02:15:42.057Z,2.00
2018-01-16T02:18:10.516Z,1.77
2018-01-16T02:20:38.855Z,2.57
2018-01-16T02:23:07.183Z,1.97
2018-01-16T02:25:36.409Z,1.47
2018-01-16T02:28:04.738Z,1.37
2018-01-16T02:30:33.072Z,1.67
2018-01-16T02:33:01.562Z,1.53
2018-01-16T02:35:29.875Z,2.60
2018-01-16T02:37:58.226Z,2.00
2018-01-16T02:40:26.541Z,1.80
2018-01-16T02:42:54.856Z,1.27
2018-01-16T02:45:23.175Z,1.87
2018-01-16T02:47:51.497Z,1.50
2018-01-16T02:50:19.920Z,1.40
2018-01-16T02:52:48.239Z,0.90
2018-01-16T02:55:16.662Z,1.60
2018-01-16T02:57:45.197Z,1.50
2018-01-16T03:00:13.571Z,1.30
2018-01-16T03:02:42.027Z,1.00
2018-01-16T03:05:10.420Z,1.10
2018-01-16T03:07:38.755Z,1.10
2018-01-16T03:10:07.088Z,1.33
2018-01-16T03:12:35.403Z,0.90
2018-01-16T03:15:03.718Z,1.27
2018-01-16T03:17:32.058Z,1.00
2018-01-16T03:20:00.412Z,1.30
2018-01-16T03:22:28.718Z,0.90
2018-01-16T03:24:57.028Z,0.90
2018-01-16T03:27:25.341Z,1.03
2018-01-16T03:29:53.638Z,1.00
2018-01-16T03:32:21.962Z,1.07
2018-01-16T03:34:50.271Z,1.30
2018-01-16T03:37:18.579Z,1.40
2018-01-16T03:39:46.941Z,0.80
2018-01-16T03:42:15.337Z,0.97
2018-01-16T03:44:43.741Z,0.80
2018-01-16T03:47:12.136Z,0.90
2018-01-16T03:49:40.441Z,0.97
2018-01-16T03:52:08.793Z,0.90
2018-01-16T03:54:37.108Z,0.97
2018-01-16T03:57:05.419Z,0.80
2018-01-16T03:59:33.745Z,1.17
2018-01-16T04:02:02.083Z,0.70
2018-01-16T04:04:30.404Z,1.13
2018-01-16T04:06:58.739Z,0.90
2018-01-16T04:09:27.047Z,1.10
2018-01-16T04:11:55.364Z,1.07
2018-01-16T04:14:23.668Z,1.53
2018-01-16T04:16:51.990Z,1.30
2018-01-16T04:19:20.322Z,0.80
2018-01-16T04:21:48.638Z,1.50
2018-01-16T04:24:16.979Z,0.90
2018-01-16T04:26:45.311Z,0.80
2018-01-16T04:29:13.667Z,0.80
2018-01-16T04:31:42.024Z,0.93
2018-01-16T04:34:10.356Z,0.87
2018-01-16T04:36:38.662Z,0.80
2018-01-16T04:39:06.979Z,0.80
2018-01-16T04:41:35.316Z,1.00
2018-01-16T04:44:03.626Z,1.37
2018-01-16T04:46:31.963Z,0.80
2018-01-16T04:49:00.284Z,0.70
2018-01-16T04:51:28.630Z,0.70
2018-01-16T04:53:56.949Z,0.80
2018-01-16T04:56:25.262Z,0.87
2018-01-16T04:58:53.602Z,0.63
2018-01-16T05:01:21.968Z,1.00
2018-01-16T05:03:50.230Z,0.70
2018-01-16T05:06:18.544Z,0.80
2018-01-16T05:08:46.883Z,1.07
2018-01-16T05:11:15.213Z,1.00
2018-01-16T05:13:43.572Z,1.60
2018-01-16T05:16:12.700Z,1.07
2018-01-16T05:18:41.415Z,1.30
2018-01-16T05:21:09.747Z,2.10
2018-01-16T05:23:38.047Z,0.90
2018-01-16T05:26:06.368Z,1.20
2018-01-16T05:28:34.682Z,1.80
2018-01-16T05:31:03.026Z,1.00
2018-01-16T05:33:31.364Z,1.10
2018-01-16T05:35:59.685Z,1.50
2018-01-16T05:38:28.014Z,1.10
2018-01-16T05:40:56.400Z,1.00
2018-01-16T05:43:24.732Z,1.07
2018-01-16T05:45:53.063Z,0.80
2018-01-16T05:48:21.386Z,1.00
2018-01-16T05:50:49.782Z,0.70
2018-01-16T05:53:18.138Z,1.20
2018-01-16T05:55:46.475Z,0.70
2018-01-16T05:58:14.817Z,0.80
2018-01-16T06:00:43.196Z,0.70
2018-01-16T06:03:11.557Z,0.80
2018-01-16T06:05:39.914Z,0.97
2018-01-16T06:08:08.248Z,0.70
2018-01-16T06:10:36.659Z,0.60
2018-01-16T06:13:04.979Z,1.00
2018-01-16T06:15:33.324Z,0.83
2018-01-16T06:18:01.661Z,1.40
2018-01-16T06:20:30.048Z,0.90
2018-01-16T06:22:58.646Z,1.60
2018-01-16T06:25:26.968Z,1.20
2018-01-16T06:27:55.368Z,1.00
2018-01-16T06:30:23.729Z,0.97
2018-01-16T06:32:52.160Z,0.80
2018-01-16T06:35:20.525Z,1.00
2018-01-16T06:37:48.967Z,1.10
2018-01-16T06:40:17.437Z,1.00
2018-01-16T06:42:45.864Z,0.90
2018-01-16T06:45:14.244Z,0.90
2018-01-16T06:47:42.656Z,0.90
2018-01-16T06:50:11.042Z,0.60
2018-01-16T06:52:39.367Z,0.70
2018-01-16T06:55:07.677Z,0.80
2018-01-16T06:57:36.068Z,0.97
2018-01-16T07:00:04.404Z,0.77
2018-01-16T07:02:32.755Z,0.77
2018-01-16T07:05:01.124Z,0.83
2018-01-16T07:07:29.454Z,1.70
2018-01-16T07:09:57.869Z,0.80
2018-01-16T07:12:26.212Z,0.80
2018-01-16T07:14:54.543Z,1.10
2018-01-16T07:17:23.214Z,1.03
2018-01-16T07:19:51.548Z,0.83
2018-01-16T07:22:20.012Z,1.00
2018-01-16T07:24:48.428Z,0.67
2018-01-16T07:27:16.782Z,0.60
2018-01-16T07:29:45.191Z,0.67
2018-01-16T07:32:13.637Z,0.80
2018-01-16T07:34:41.995Z,0.93
2018-01-16T07:37:10.322Z,0.80
2018-01-16T07:39:38.874Z,0.70
2018-01-16T07:42:07.212Z,0.87
2018-01-16T07:44:35.677Z,1.30
2018-01-16T07:47:05.288Z,1.30
2018-01-16T07:49:33.600Z,0.97
2018-01-16T07:52:02.028Z,0.60
2018-01-16T07:54:30.711Z,0.70
2018-01-16T07:56:59.140Z,0.87
2018-01-16T07:59:28.266Z,0.60
2018-01-16T08:01:56.690Z,0.93
2018-01-16T08:04:25.017Z,0.73
2018-01-16T08:06:53.354Z,0.63
2018-01-16T08:09:22.472Z,0.77
2018-01-16T08:11:52.730Z,1.00
2018-01-16T08:14:21.248Z,0.80
2018-01-16T08:16:50.394Z,0.90
2018-01-16T08:19:18.716Z,0.70
2018-01-16T08:21:47.221Z,0.60
2018-01-16T08:24:15.806Z,0.70
2018-01-16T08:26:44.132Z,0.73
2018-01-16T08:29:12.888Z,1.00
2018-01-16T08:31:41.826Z,0.87
2018-01-16T08:34:10.992Z,1.23
2018-01-16T08:36:40.092Z,0.90
2018-01-16T08:39:08.467Z,0.97
2018-01-16T08:41:36.787Z,0.93
2018-01-16T08:44:05.290Z,0.70
2018-01-16T08:46:33.894Z,0.77
2018-01-16T08:49:02.288Z,0.70
2018-01-16T08:51:30.638Z,0.90
2018-01-16T08:53:58.952Z,0.60
2018-01-16T08:56:27.376Z,0.60
2018-01-16T08:58:56.146Z,0.83
2018-01-16T09:01:24.480Z,1.10
2018-01-16T09:03:52.899Z,0.70
2018-01-16T09:06:21.597Z,0.70
2018-01-16T09:08:50.954Z,0.83
2018-01-16T09:11:19.253Z,0.60
2018-01-16T09:13:47.597Z,1.07
2018-01-16T09:16:15.980Z,0.90
2018-01-16T09:18:44.458Z,1.10
2018-01-16T09:21:12.821Z,0.90
2018-01-16T09:23:41.228Z,0.87
2018-01-16T09:26:09.614Z,0.83
2018-01-16T09:28:37.946Z,0.80
2018-01-16T09:31:06.319Z,0.80
2018-01-16T09:33:34.707Z,0.60
2018-01-16T09:36:03.120Z,0.80
2018-01-16T09:38:32.012Z,0.83
2018-01-16T09:41:00.359Z,1.00
2018-01-16T09:43:28.744Z,0.73
2018-01-16T09:45:57.102Z,1.00
2018-01-16T09:48:25.731Z,0.77
2018-01-16T09:50:54.104Z,0.50
2018-01-16T09:53:22.802Z,0.87
2018-01-16T09:55:52.253Z,0.70
2018-01-16T09:58:20.856Z,0.80
2018-01-16T10:00:49.243Z,1.00
2018-01-16T10:03:17.708Z,0.80
2018-01-16T10:05:46.088Z,0.90
2018-01-16T10:08:14.573Z,1.00
2018-01-16T10:10:43.001Z,0.87
2018-01-16T10:13:11.944Z,1.00
2018-01-16T10:15:40.442Z,0.70
2018-01-16T10:18:09.970Z,1.10
2018-01-16T10:20:38.648Z,0.60
2018-01-16T10:23:07.476Z,0.60
2018-01-16T10:25:35.878Z,0.70
2018-01-16T10:28:04.547Z,0.50
2018-01-16T10:30:43.175Z,0.70
2018-01-16T10:33:11.600Z,0.70
2018-01-16T10:35:39.979Z,0.50
2018-01-16T10:38:08.303Z,0.67
2018-01-16T10:40:36.658Z,1.33
2018-01-16T10:43:05.131Z,0.90
2018-01-16T10:48:06.930Z,0.70
2018-01-16T10:50:35.349Z,0.60
2018-01-16T10:53:05.926Z,0.53
2018-01-16T10:55:34.415Z,0.50
2018-01-16T10:58:02.771Z,0.70
2018-01-16T11:00:31.231Z,1.03
2018-01-16T11:02:59.826Z,0.60
2018-01-16T11:05:28.265Z,1.07
2018-01-16T11:07:56.577Z,0.80
2018-01-16T11:10:25.480Z,0.73
2018-01-16T11:12:53.847Z,0.63
2018-01-16T11:15:22.240Z,0.90
2018-01-16T11:17:50.602Z,0.90
2018-01-16T11:20:19.254Z,1.50
2018-01-16T11:22:51.668Z,0.97
2018-01-16T11:25:20.066Z,1.07
2018-01-16T11:27:48.525Z,0.73
2018-01-16T11:30:17.596Z,0.77
2018-01-16T11:32:45.967Z,0.70
2018-01-16T11:35:14.362Z,1.00
2018-01-16T11:37:43.494Z,0.70
2018-01-16T11:40:12.445Z,0.63
2018-01-16T11:42:41.757Z,0.70
2018-01-16T11:45:10.096Z,0.90
2018-01-16T11:47:38.421Z,0.90
2018-01-16T11:50:06.936Z,0.90
2018-01-16T11:52:35.387Z,1.17
2018-01-16T11:55:03.724Z,0.60
2018-01-16T11:57:32.068Z,0.70
2018-01-16T12:00:00.580Z,1.00
2018-01-16T12:02:29.023Z,1.03
2018-01-16T12:04:57.380Z,1.10
2018-01-16T12:07:25.701Z,0.87
2018-01-16T12:09:57.957Z,0.90
2018-01-16T12:12:26.356Z,0.80
2018-01-16T12:14:54.752Z,1.47
2018-01-16T12:17:23.041Z,1.10
2018-01-16T12:19:52.332Z,1.77
2018-01-16T12:22:20.692Z,1.43
2018-01-16T12:24:49.123Z,1.10
2018-01-16T12:27:17.454Z,1.23
2018-01-16T12:29:46.611Z,1.00
2018-01-16T12:32:15.777Z,1.40
2018-01-16T12:34:44.206Z,1.20
2018-01-16T12:37:12.596Z,0.83
2018-01-16T12:39:45.612Z,1.23
2018-01-16T12:42:13.987Z,1.93
2018-01-16T12:44:43.018Z,1.43
2018-01-16T12:47:12.864Z,0.80
2018-01-16T12:49:42.152Z,1.10
2018-01-16T12:52:10.911Z,1.60
2018-01-16T12:57:11.784Z,1.67
2018-01-16T12:59:40.184Z,1.40
2018-01-16T13:02:08.655Z,1.23
2018-01-16T13:04:37.062Z,1.10
2018-01-16T13:07:05.721Z,0.90
2018-01-16T13:09:34.037Z,1.07
2018-01-16T13:12:03.141Z,0.97
2018-01-16T13:14:31.536Z,0.97
2018-01-16T13:16:59.929Z,0.70
2018-01-16T13:19:28.464Z,0.80
2018-01-16T13:21:56.939Z,0.70
2018-01-16T13:24:29.027Z,1.30
2018-01-16T13:26:57.490Z,1.43
2018-01-16T13:29:29.662Z,0.67
2018-01-16T13:31:58.294Z,0.90
2018-01-16T13:34:26.673Z,0.93
2018-01-16T13:37:18.137Z,0.80
2018-01-16T13:39:47.653Z,0.80
2018-01-16T13:42:19.771Z,0.70
2018-01-16T13:44:48.207Z,0.70
2018-01-16T13:47:16.565Z,0.70
2018-01-16T13:49:45.366Z,0.80
2018-01-16T13:52:13.975Z,0.77
2018-01-16T13:54:42.330Z,0.70
2018-01-16T13:57:10.753Z,0.73
2018-01-16T13:59:39.208Z,0.60
2018-01-16T14:02:07.589Z,0.60
2018-01-16T14:04:35.917Z,1.77
2018-01-16T14:07:04.806Z,0.70
2018-01-16T14:12:09.166Z,1.37
2018-01-16T14:14:39.372Z,1.27
2018-01-16T14:17:14.059Z,2.63
2018-01-16T14:19:43.352Z,3.57
2018-01-16T14:22:13.712Z,2.10
2018-01-16T14:24:46.082Z,3.93
2018-01-16T14:27:20.203Z,4.03
2018-01-16T14:29:48.834Z,2.40
2018-01-16T14:37:26.570Z,2.23
2018-01-16T14:39:54.950Z,2.37
2018-01-16T14:52:56.635Z,1.57
2018-01-16T14:55:25.123Z,1.80
2018-01-16T14:57:53.500Z,1.53
2018-01-16T15:06:09.167Z,1.43
2018-01-16T15:08:38.205Z,1.70
2018-01-16T15:11:12.877Z,1.43
2018-01-16T15:13:43.558Z,1.63
2018-01-16T15:16:13.236Z,1.50
2018-01-16T15:18:41.696Z,1.53
2018-01-16T15:21:10.057Z,0.70
2018-01-16T15:23:43.481Z,0.90
2018-01-16T15:26:13.414Z,1.63
2018-01-16T15:36:22.090Z,1.70
2018-01-16T15:41:26.019Z,2.67
2018-01-16T15:43:54.677Z,1.70
2018-01-16T15:46:23.102Z,1.63
2018-01-16T15:48:51.541Z,1.47
2018-01-16T15:51:21.542Z,1.33
2018-01-16T15:53:50.735Z,1.40
2018-01-16T15:58:55.701Z,1.23
2018-01-16T16:01:24.234Z,1.50
2018-01-16T16:03:53.242Z,0.93
2018-01-16T16:06:22.146Z,1.80
2018-01-16T16:15:10.159Z,1.47
2018-01-16T16:17:38.629Z,1.13
2018-01-16T16:22:51.363Z,1.00
2018-01-16T16:25:27.616Z,1.67
2018-01-16T16:27:59.748Z,1.47
2018-01-16T16:30:28.305Z,1.50
2018-01-16T16:36:01.133Z,1.10
2018-01-16T16:41:11.377Z,1.40
2018-01-16T16:43:39.814Z,1.50
2018-01-16T16:46:08.179Z,1.23
2018-01-16T16:48:41.561Z,2.00
2018-01-16T16:51:09.923Z,1.10
2018-01-16T16:53:38.329Z,1.87
2018-01-16T16:56:06.839Z,1.00
2018-01-16T16:58:35.296Z,1.00
2018-01-16T17:01:04.040Z,1.50
2018-01-16T17:03:32.803Z,1.13
2018-01-16T17:06:01.105Z,1.30
2018-01-16T17:08:29.550Z,1.97
2018-01-16T17:10:58.016Z,1.93
2018-01-16T17:13:26.344Z,1.33
2018-01-16T17:15:54.659Z,0.80
2018-01-16T17:18:23.287Z,1.57
2018-01-16T17:20:51.629Z,1.90
2018-01-16T17:23:20.013Z,1.40
2018-01-16T17:25:48.659Z,2.10
2018-01-16T17:28:20.310Z,0.80
2018-01-16T17:30:48.734Z,0.83
2018-01-16T17:33:17.106Z,1.00
2018-01-16T17:35:45.470Z,0.97
2018-01-16T17:38:13.857Z,1.53
2018-01-16T17:43:15.877Z,1.10
2018-01-16T17:45:44.747Z,1.20
2018-01-16T17:48:15.374Z,1.20
2018-01-16T17:50:43.789Z,0.90
2018-01-16T17:53:12.295Z,1.10
2018-01-16T17:55:40.598Z,0.80
2018-01-16T17:58:09.328Z,1.47
2018-01-16T18:00:37.628Z,1.13
2018-01-16T18:03:05.989Z,2.07
2018-01-16T18:05:34.316Z,1.20
2018-01-16T18:08:04.336Z,1.00
2018-01-16T18:10:32.684Z,1.80
2018-01-16T18:13:02.081Z,1.30
2018-01-16T18:15:30.518Z,1.53
2018-01-16T18:17:58.838Z,1.67
2018-01-16T18:20:27.219Z,1.10
2018-01-16T18:22:55.575Z,1.67
2018-01-16T18:25:24.388Z,1.30
2018-01-16T18:27:54.489Z,1.37
2018-01-16T18:30:25.038Z,1.00
2018-01-16T18:32:53.358Z,1.17
2018-01-16T18:35:21.664Z,1.20
2018-01-16T18:37:50.124Z,1.50
2018-01-16T18:40:18.516Z,1.50
2018-01-16T18:42:47.156Z,1.80
2018-01-16T18:45:16.662Z,1.20
2018-01-16T18:47:45.294Z,1.77
2018-01-16T18:50:13.685Z,1.10
2018-01-16T18:52:42.130Z,1.80
2018-01-16T18:55:11.084Z,1.20
2018-01-16T18:57:40.552Z,1.30
2018-01-16T19:00:08.922Z,1.53
2018-01-16T19:05:10.101Z,2.63
2018-01-16T19:07:39.169Z,1.53
2018-01-16T19:10:07.505Z,1.43
2018-01-16T19:12:35.818Z,1.30
2018-01-16T19:15:04.114Z,1.37
2018-01-16T19:17:33.308Z,1.43
2018-01-16T19:20:01.639Z,1.30
2018-01-16T19:22:30.105Z,1.10
2018-01-16T19:24:58.619Z,1.40
2018-01-16T19:27:27.071Z,2.30
2018-01-16T19:29:56.457Z,1.77
2018-01-16T19:32:24.776Z,1.60
2018-01-16T19:34:53.828Z,1.47
2018-01-16T19:37:22.238Z,2.00
2018-01-16T19:39:51.580Z,1.53
2018-01-16T19:42:19.952Z,2.93
2018-01-16T19:44:49.555Z,4.50
2018-01-16T19:47:18.291Z,2.57
2018-01-16T19:49:46.638Z,3.17
2018-01-16T19:52:14.978Z,3.20
2018-01-16T19:54:43.386Z,3.47
2018-01-16T19:57:12.336Z,2.97
2018-01-16T19:59:40.638Z,3.90
2018-01-16T20:02:08.992Z,2.50
2018-01-16T20:04:37.431Z,3.37
2018-01-16T20:07:06.292Z,2.03
2018-01-16T20:09:34.641Z,2.37
2018-01-16T20:12:02.957Z,2.20
2018-01-16T20:14:32.272Z,2.47
2018-01-16T20:17:00.641Z,2.10
2018-01-16T20:19:28.984Z,2.63
2018-01-16T20:21:57.400Z,3.13
2018-01-16T20:24:25.747Z,4.80
2018-01-16T20:26:54.115Z,4.30
2018-01-16T20:29:22.548Z,2.10
2018-01-16T20:31:51.102Z,2.03
2018-01-16T20:34:19.460Z,2.90
2018-01-16T20:36:49.653Z,2.50
2018-01-16T20:39:18.065Z,3.37
2018-01-16T20:41:47.032Z,3.10
2018-01-16T20:44:15.498Z,2.17
2018-01-16T20:46:44.054Z,2.50
2018-01-16T20:49:13.709Z,2.73
2018-01-16T20:51:42.098Z,2.37
2018-01-16T20:54:10.437Z,2.10
2018-01-16T20:56:39.255Z,2.40
2018-01-16T20:59:07.728Z,3.30
2018-01-16T21:01:37.155Z,2.17
2018-01-16T21:06:56.481Z,2.27
2018-01-16T21:09:24.824Z,2.53
2018-01-16T21:11:53.164Z,4.10
2018-01-16T21:14:21.484Z,2.40
2018-01-16T21:16:49.910Z,4.03
2018-01-16T21:19:18.341Z,4.27
2018-01-16T21:21:46.735Z,3.93
2018-01-16T21:24:15.408Z,2.80
2018-01-16T21:26:43.750Z,1.70
2018-01-16T21:29:12.314Z,2.30
2018-01-16T21:31:40.776Z,3.27
2018-01-16T21:34:13.233Z,3.73
2018-01-16T21:36:41.660Z,3.57
2018-01-16T21:39:09.955Z,2.60
2018-01-16T21:41:38.585Z,2.57
2018-01-16T21:44:07.066Z,2.83
2018-01-16T21:46:35.414Z,2.60
2018-01-16T21:49:03.759Z,2.30
2018-01-16T21:51:32.209Z,2.40
2018-01-16T21:54:03.598Z,2.27
2018-01-16T21:56:32.018Z,2.53
2018-01-16T21:59:00.460Z,2.17
2018-01-16T22:01:28.981Z,2.60
2018-01-16T22:03:57.363Z,2.00
2018-01-16T22:06:25.814Z,2.20
2018-01-16T22:08:54.236Z,2.50
2018-01-16T22:11:22.722Z,2.10
2018-01-16T22:13:51.361Z,2.57
2018-01-16T22:16:19.700Z,2.40
2018-01-16T22:18:48.058Z,2.57
2018-01-16T22:21:16.389Z,1.93
2018-01-16T22:23:44.859Z,4.93
2018-01-16T22:26:13.233Z,4.90
2018-01-16T22:28:41.726Z,3.30
2018-01-16T22:31:10.077Z,4.00
2018-01-16T22:33:38.411Z,3.63
2018-01-16T22:36:06.784Z,6.30
2018-01-16T22:38:35.165Z,2.93
2018-01-16T22:41:03.489Z,2.60
2018-01-16T22:43:31.894Z,3.47
2018-01-16T22:46:00.302Z,3.90
2018-01-16T22:48:28.634Z,2.70
2018-01-16T22:50:57.017Z,2.80
2018-01-16T22:53:25.461Z,3.13
2018-01-16T22:55:53.789Z,2.50
2018-01-16T22:58:22.115Z,3.07
2018-01-16T23:00:50.509Z,2.23
2018-01-16T23:03:18.898Z,2.50
2018-01-16T23:05:47.244Z,3.30
2018-01-16T23:08:15.571Z,2.33
2018-01-16T23:10:43.996Z,2.13
2018-01-16T23:13:12.407Z,3.03
2018-01-16T23:15:45.192Z,3.43
2018-01-16T23:18:13.645Z,2.20
2018-01-16T23:20:42.344Z,1.97
2018-01-16T23:23:10.670Z,2.03
2018-01-16T23:25:39.340Z,2.53
2018-01-16T23:28:07.692Z,3.93
2018-01-16T23:30:35.992Z,2.70
2018-01-16T23:33:04.364Z,3.00
2018-01-16T23:35:32.690Z,2.90
2018-01-16T23:38:01.076Z,3.50
2018-01-16T23:40:29.400Z,2.97
2018-01-16T23:43:01.051Z,4.00
2018-01-16T23:45:29.407Z,3.10
2018-01-16T23:47:57.720Z,3.00
2018-01-16T23:50:26.122Z,3.27
2018-01-16T23:52:54.436Z,3.83
2018-01-16T23:55:22.769Z,3.17
2018-01-16T23:57:51.768Z,3.33
